createdAt,value
2023-05-18T00:01:14.888Z,102165.16
2023-05-18T00:03:43.155Z,102161.75
2023-05-18T00:06:11.150Z,102165.50
2023-05-18T00:08:40.286Z,102166.03
2023-05-18T00:11:08.047Z,102161.50
2023-05-18T00:13:35.929Z,102162.47
2023-05-18T00:16:03.744Z,102159.59
2023-05-18T00:18:31.522Z,102166.75
2023-05-18T00:20:59.707Z,102160.13
2023-05-18T00:23:29.914Z,102152.25
2023-05-18T00:26:00.502Z,102157.00
2023-05-18T00:28:28.614Z,102157.25
2023-05-18T00:30:56.937Z,102155.34
2023-05-18T00:33:24.931Z,102161.63
2023-05-18T00:35:52.658Z,102157.03
2023-05-18T00:38:20.575Z,102148.22
2023-05-18T00:40:48.383Z,102149.47
2023-05-18T00:43:17.490Z,102152.34
2023-05-18T00:45:45.388Z,102150.06
2023-05-18T00:48:13.421Z,102156.00
2023-05-18T00:50:41.452Z,102154.50
2023-05-18T00:53:10.622Z,102153.50
2023-05-18T00:55:38.621Z,102153.88
2023-05-18T00:58:06.581Z,102148.19
2023-05-18T01:00:37.736Z,102154.75
2023-05-18T01:03:06.201Z,102147.94
2023-05-18T01:05:34.016Z,102147.50
2023-05-18T01:08:03.031Z,102144.41
2023-05-18T01:10:35.238Z,102141.44
2023-05-18T01:13:07.868Z,102141.19
2023-05-18T01:15:39.979Z,102140.41
2023-05-18T01:18:16.259Z,102154.16
2023-05-18T01:20:48.369Z,102141.69
2023-05-18T01:23:44.937Z,102146.91
2023-05-18T01:26:16.888Z,102148.13
2023-05-18T01:28:47.861Z,102143.28
2023-05-18T01:31:16.450Z,102141.94
2023-05-18T01:33:44.480Z,102138.53
2023-05-18T01:36:12.472Z,102135.63
2023-05-18T01:38:43.933Z,102133.47
2023-05-18T01:41:19.740Z,102136.69
2023-05-18T01:43:54.031Z,102138.53
2023-05-18T01:46:35.910Z,102132.09
2023-05-18T01:49:11.137Z,102127.22
2023-05-18T01:51:44.965Z,102138.84
2023-05-18T01:54:16.853Z,102137.56
2023-05-18T01:56:48.306Z,102137.94
2023-05-18T01:59:16.568Z,102134.19
2023-05-18T02:01:45.218Z,102136.28
2023-05-18T02:04:13.330Z,102136.03
2023-05-18T02:06:41.151Z,102129.28
2023-05-18T02:09:09.071Z,102141.16
2023-05-18T02:11:36.900Z,102130.69
2023-05-18T02:14:06.093Z,102131.88
2023-05-18T02:16:33.861Z,102130.44
2023-05-18T02:19:01.871Z,102125.38
2023-05-18T02:21:29.760Z,102129.00
2023-05-18T02:23:57.541Z,102137.84
2023-05-18T02:26:25.284Z,102135.19
2023-05-18T02:28:53.039Z,102135.31
2023-05-18T02:31:22.327Z,102142.75
2023-05-18T02:33:50.186Z,102140.69
2023-05-18T02:36:18.630Z,102140.41
2023-05-18T02:38:46.504Z,102140.94
2023-05-18T02:41:14.250Z,102142.59
2023-05-18T02:43:42.131Z,102140.09
2023-05-18T02:46:09.919Z,102141.66
2023-05-18T02:48:39.033Z,102151.19
2023-05-18T02:51:06.844Z,102146.47
2023-05-18T02:53:34.543Z,102150.63
2023-05-18T02:56:03.761Z,102152.09
2023-05-18T02:58:31.844Z,102148.78
2023-05-18T03:01:00.407Z,102154.44
2023-05-18T03:03:28.254Z,102146.41
2023-05-18T03:05:57.437Z,102139.69
2023-05-18T03:08:26.737Z,102148.72
2023-05-18T03:10:54.539Z,102142.00
2023-05-18T03:13:22.332Z,102146.03
2023-05-18T03:15:50.982Z,102142.06
2023-05-18T03:18:19.038Z,102139.88
2023-05-18T03:20:46.830Z,102142.25
2023-05-18T03:23:15.912Z,102140.72
2023-05-18T03:25:44.758Z,102135.63
2023-05-18T03:28:12.576Z,102138.94
2023-05-18T03:30:40.463Z,102141.25
2023-05-18T03:33:08.311Z,102142.06
2023-05-18T03:35:36.209Z,102142.19
2023-05-18T03:38:03.912Z,102136.53
2023-05-18T03:40:33.089Z,102135.59
2023-05-18T03:43:01.679Z,102138.06
2023-05-18T03:45:29.813Z,102136.41
2023-05-18T03:47:57.869Z,102139.97
2023-05-18T03:50:25.789Z,102135.06
2023-05-18T03:52:54.133Z,102132.16
2023-05-18T03:55:22.239Z,102134.56
2023-05-18T03:57:51.429Z,102131.34
2023-05-18T04:00:19.993Z,102133.13
2023-05-18T04:02:51.778Z,102127.78
2023-05-18T04:05:20.623Z,102130.28
2023-05-18T04:07:48.395Z,102130.47
2023-05-18T04:10:17.209Z,102135.22
2023-05-18T04:12:45.063Z,102133.31
2023-05-18T04:15:14.569Z,102130.50
2023-05-18T04:17:45.406Z,102131.94
2023-05-18T04:20:14.476Z,102130.25
2023-05-18T04:22:46.310Z,102130.66
2023-05-18T04:25:14.460Z,102136.09
2023-05-18T04:27:43.297Z,102139.88
2023-05-18T04:30:12.679Z,102136.69
2023-05-18T04:32:42.874Z,102138.28
2023-05-18T04:35:12.654Z,102138.81
2023-05-18T04:37:41.289Z,102134.09
2023-05-18T04:40:13.422Z,102136.78
2023-05-18T04:42:45.465Z,102142.13
2023-05-18T04:45:15.886Z,102135.47
2023-05-18T04:47:47.100Z,102141.25
2023-05-18T04:50:16.255Z,102135.56
2023-05-18T04:52:48.859Z,102137.28
2023-05-18T04:55:22.884Z,102138.47
2023-05-18T04:57:51.050Z,102146.81
2023-05-18T05:00:19.742Z,102153.00
2023-05-18T05:02:48.934Z,102152.16
2023-05-18T05:05:16.797Z,102148.97
2023-05-18T05:07:44.552Z,102150.69
2023-05-18T05:10:12.518Z,102153.59
2023-05-18T05:12:40.475Z,102160.03
2023-05-18T05:15:09.818Z,102158.88
2023-05-18T05:17:37.738Z,102162.34
2023-05-18T05:20:08.168Z,102163.25
2023-05-18T05:22:36.181Z,102173.28
2023-05-18T05:25:06.061Z,102170.75
2023-05-18T05:27:34.188Z,102172.69
2023-05-18T05:30:02.049Z,102171.50
2023-05-18T05:32:29.832Z,102170.16
2023-05-18T05:34:57.626Z,102168.09
2023-05-18T05:37:26.756Z,102170.75
2023-05-18T05:39:54.697Z,102170.06
2023-05-18T05:42:22.394Z,102174.78
2023-05-18T05:44:50.243Z,102175.03
2023-05-18T05:47:18.044Z,102171.22
2023-05-18T05:49:45.763Z,102180.16
2023-05-18T05:52:13.639Z,102177.44
2023-05-18T05:54:43.155Z,102183.63
2023-05-18T05:57:10.853Z,102181.78
2023-05-18T05:59:38.665Z,102186.69
2023-05-18T06:02:06.718Z,102176.78
2023-05-18T06:04:34.573Z,102177.69
2023-05-18T06:07:02.419Z,102175.91
2023-05-18T06:09:30.158Z,102181.34
2023-05-18T06:11:59.449Z,102185.91
2023-05-18T06:14:27.320Z,102181.41
2023-05-18T06:16:55.117Z,102178.69
2023-05-18T06:19:23.092Z,102183.81
2023-05-18T06:21:50.995Z,102185.53
2023-05-18T06:24:18.783Z,102186.81
2023-05-18T06:26:46.551Z,102188.47
2023-05-18T06:29:15.744Z,102183.81
2023-05-18T06:31:43.598Z,102181.94
2023-05-18T06:34:11.407Z,102192.22
2023-05-18T06:36:39.336Z,102183.50
2023-05-18T06:39:07.119Z,102183.78
2023-05-18T06:41:35.171Z,102180.09
2023-05-18T06:44:02.906Z,102191.56
2023-05-18T06:46:32.189Z,102191.56
2023-05-18T06:49:00.065Z,102189.25
2023-05-18T06:51:27.956Z,102194.09
2023-05-18T06:53:55.933Z,102196.03
2023-05-18T06:56:23.961Z,102195.25
2023-05-18T06:58:51.676Z,102187.69
2023-05-18T07:01:19.514Z,102189.25
2023-05-18T07:03:48.760Z,102191.72
2023-05-18T07:06:16.618Z,102186.72
2023-05-18T07:08:45.434Z,102193.47
2023-05-18T07:11:13.157Z,102190.44
2023-05-18T07:13:40.913Z,102196.09
2023-05-18T07:16:08.756Z,102191.63
2023-05-18T07:18:36.673Z,102181.28
2023-05-18T07:21:06.534Z,102182.41
2023-05-18T07:23:34.263Z,102188.09
2023-05-18T07:26:02.063Z,102188.97
2023-05-18T07:28:29.926Z,102189.69
2023-05-18T07:30:57.692Z,102185.47
2023-05-18T07:33:25.525Z,102182.59
2023-05-18T07:35:53.271Z,102182.00
2023-05-18T07:38:22.438Z,102184.84
2023-05-18T07:40:50.219Z,102197.81
2023-05-18T07:43:17.979Z,102187.25
2023-05-18T07:45:45.751Z,102183.88
2023-05-18T07:48:13.691Z,102181.50
2023-05-18T07:50:41.516Z,102182.00
2023-05-18T07:53:09.279Z,102176.91
2023-05-18T07:55:38.564Z,102181.06
2023-05-18T07:58:06.813Z,102185.78
2023-05-18T08:00:34.934Z,102182.00
2023-05-18T08:03:02.855Z,102178.25
2023-05-18T08:05:31.215Z,102179.13
2023-05-18T08:07:59.228Z,102179.38
2023-05-18T08:10:27.207Z,102180.88
2023-05-18T08:12:56.319Z,102166.25
2023-05-18T08:15:24.221Z,102169.81
2023-05-18T08:17:52.259Z,102167.19
2023-05-18T08:20:20.328Z,102168.69
2023-05-18T08:22:48.118Z,102165.09
2023-05-18T08:25:15.881Z,102162.41
2023-05-18T08:27:43.685Z,102164.94
2023-05-18T08:30:14.177Z,102163.09
2023-05-18T08:32:42.065Z,102155.44
2023-05-18T08:35:10.852Z,102155.00
2023-05-18T08:37:39.712Z,102160.59
2023-05-18T08:40:11.321Z,102153.28
2023-05-18T08:42:49.507Z,102150.25
2023-05-18T08:45:25.143Z,102148.75
2023-05-18T08:47:56.839Z,102150.03
2023-05-18T08:50:26.739Z,102149.38
2023-05-18T08:52:57.016Z,102152.41
2023-05-18T08:55:25.056Z,102143.69
2023-05-18T08:57:56.821Z,102149.34
2023-05-18T09:00:26.395Z,102144.41
2023-05-18T09:02:54.638Z,102142.69
2023-05-18T09:05:24.046Z,102147.09
2023-05-18T09:07:52.659Z,102140.59
2023-05-18T09:10:20.438Z,102133.94
2023-05-18T09:12:49.899Z,102135.25
2023-05-18T09:15:18.477Z,102134.88
2023-05-18T09:17:47.672Z,102129.41
2023-05-18T09:20:17.602Z,102141.06
2023-05-18T09:22:45.392Z,102133.91
2023-05-18T09:25:13.100Z,102133.00
2023-05-18T09:27:41.421Z,102127.34
2023-05-18T09:30:12.502Z,102131.97
2023-05-18T09:32:40.788Z,102137.47
2023-05-18T09:35:10.747Z,102141.88
2023-05-18T09:37:42.779Z,102139.63
2023-05-18T09:40:10.984Z,102140.25
2023-05-18T09:42:39.634Z,102141.63
2023-05-18T09:45:18.336Z,102137.38
2023-05-18T09:47:46.360Z,102136.03
2023-05-18T09:50:15.549Z,102141.19
2023-05-18T09:52:44.238Z,102132.91
2023-05-18T09:55:12.584Z,102136.88
2023-05-18T09:57:42.573Z,102133.81
2023-05-18T10:00:12.683Z,102131.03
2023-05-18T10:02:42.318Z,102126.59
2023-05-18T10:05:21.258Z,102125.69
2023-05-18T10:07:49.668Z,102121.13
2023-05-18T10:10:20.810Z,102131.19
2023-05-18T10:12:49.330Z,102132.09
2023-05-18T10:15:19.604Z,102131.41
2023-05-18T10:17:48.067Z,102137.59
2023-05-18T10:20:20.624Z,102131.84
2023-05-18T10:22:50.022Z,102131.47
2023-05-18T10:25:20.658Z,102124.69
2023-05-18T10:27:50.445Z,102122.28
2023-05-18T10:30:18.642Z,102126.06
2023-05-18T10:32:46.878Z,102129.59
2023-05-18T10:35:15.289Z,102122.63
2023-05-18T10:37:48.391Z,102127.31
2023-05-18T10:40:16.612Z,102126.06
2023-05-18T10:42:45.848Z,102114.41
2023-05-18T10:45:13.786Z,102122.34
2023-05-18T10:47:44.561Z,102113.69
2023-05-18T10:50:12.430Z,102124.09
2023-05-18T10:52:42.556Z,102112.94
2023-05-18T10:55:12.619Z,102116.75
2023-05-18T10:57:45.620Z,102106.28
2023-05-18T11:00:14.368Z,102116.28
2023-05-18T11:02:43.490Z,102111.91
2023-05-18T11:05:12.562Z,102116.06
2023-05-18T11:07:41.653Z,102107.78
2023-05-18T11:10:12.583Z,102108.44
2023-05-18T11:12:42.213Z,102111.00
2023-05-18T11:15:10.705Z,102107.78
2023-05-18T11:17:38.468Z,102106.19
2023-05-18T11:20:14.251Z,102101.47
2023-05-18T11:22:46.873Z,102092.69
2023-05-18T11:25:49.616Z,102094.44
2023-05-18T11:28:17.476Z,102093.56
2023-05-18T11:30:50.970Z,102093.56
2023-05-18T11:33:24.411Z,102095.03
2023-05-18T11:36:11.671Z,102095.03
2023-05-18T11:38:54.231Z,102091.38
2023-05-18T11:41:34.164Z,102087.47
2023-05-18T11:44:09.902Z,102082.03
2023-05-18T11:46:37.905Z,102082.41
2023-05-18T11:49:06.148Z,102080.72
2023-05-18T11:51:34.213Z,102078.78
2023-05-18T11:54:02.057Z,102076.72
2023-05-18T11:56:34.647Z,102077.00
2023-05-18T11:59:15.930Z,102074.88
2023-05-18T12:01:44.574Z,102067.31
2023-05-18T12:04:13.118Z,102069.69
2023-05-18T12:06:41.226Z,102066.72
2023-05-18T12:09:09.027Z,102068.28
2023-05-18T12:11:39.037Z,102065.66
2023-05-18T12:14:07.503Z,102066.97
2023-05-18T12:16:37.773Z,102067.97
2023-05-18T12:19:05.629Z,102068.47
2023-05-18T12:21:36.871Z,102057.31
2023-05-18T12:24:05.240Z,102051.06
2023-05-18T12:26:33.093Z,102053.19
2023-05-18T12:29:03.041Z,102045.66
2023-05-18T12:31:31.716Z,102045.91
2023-05-18T12:34:02.401Z,102033.88
2023-05-18T12:36:30.563Z,102038.34
2023-05-18T12:38:58.300Z,102033.47
2023-05-18T12:41:27.478Z,102038.09
2023-05-18T12:43:55.725Z,102027.56
2023-05-18T12:46:25.649Z,102025.03
2023-05-18T12:48:59.624Z,102030.19
2023-05-18T12:51:31.486Z,102028.53
2023-05-18T12:53:59.626Z,102036.38
2023-05-18T12:56:28.492Z,102023.91
2023-05-18T12:58:58.552Z,102010.97
2023-05-18T13:01:28.126Z,102008.22
2023-05-18T13:03:59.694Z,102011.44
2023-05-18T13:06:27.524Z,102007.53
2023-05-18T13:08:56.271Z,102015.44
2023-05-18T13:11:27.700Z,102019.91
2023-05-18T13:13:59.549Z,102012.94
2023-05-18T13:16:30.232Z,102013.59
2023-05-18T13:19:00.290Z,102019.09
2023-05-18T13:21:28.510Z,102008.81
2023-05-18T13:23:56.271Z,102014.84
2023-05-18T13:26:25.255Z,102017.81
2023-05-18T13:28:54.676Z,102009.25
2023-05-18T13:31:23.231Z,102011.84
2023-05-18T13:33:52.530Z,102012.81
2023-05-18T13:36:20.464Z,102013.00
2023-05-18T13:38:48.344Z,102002.88
2023-05-18T13:41:16.178Z,102003.16
2023-05-18T13:43:43.992Z,102003.50
2023-05-18T13:46:11.747Z,102006.78
2023-05-18T13:48:39.560Z,102002.94
2023-05-18T13:51:08.744Z,101998.94
2023-05-18T13:53:38.010Z,101999.97
2023-05-18T13:56:06.822Z,102001.97
2023-05-18T13:58:36.064Z,101991.47
2023-05-18T14:01:07.989Z,101990.41
2023-05-18T14:03:36.564Z,101995.28
2023-05-18T14:06:04.753Z,101987.47
2023-05-18T14:08:33.913Z,101989.22
2023-05-18T14:13:29.469Z,101977.06
2023-05-18T14:15:57.218Z,101969.22
2023-05-18T14:18:24.931Z,101972.44
2023-05-18T14:20:52.694Z,101965.84
2023-05-18T14:23:20.557Z,101962.41
2023-05-18T14:25:49.639Z,101966.03
2023-05-18T14:28:17.631Z,101966.44
2023-05-18T14:30:45.617Z,101971.09
2023-05-18T14:33:13.584Z,101952.59
2023-05-18T14:35:41.449Z,101961.69
2023-05-18T14:38:09.159Z,101952.66
2023-05-18T14:40:36.919Z,101952.38
2023-05-18T14:43:06.051Z,101954.09
2023-05-18T14:45:33.871Z,101944.44
2023-05-18T14:48:01.771Z,101950.09
2023-05-18T14:50:29.898Z,101952.13
2023-05-18T14:52:57.826Z,101948.25
2023-05-18T14:55:25.576Z,101949.09
2023-05-18T14:57:53.410Z,101946.09
2023-05-18T15:00:22.970Z,101933.69
2023-05-18T15:02:50.832Z,101926.78
2023-05-18T15:05:18.945Z,101922.22
2023-05-18T15:07:46.675Z,101917.97
2023-05-18T15:10:14.420Z,101910.53
2023-05-18T15:12:42.268Z,101918.13
2023-05-18T15:15:10.764Z,101927.44
2023-05-18T15:17:39.900Z,101923.03
2023-05-18T15:20:09.009Z,101937.03
2023-05-18T15:22:38.227Z,101927.28
2023-05-18T15:25:08.016Z,101916.97
2023-05-18T15:27:35.980Z,101919.97
2023-05-18T15:30:06.845Z,101925.78
2023-05-18T15:32:34.612Z,101923.53
2023-05-18T15:35:03.873Z,101925.50
2023-05-18T15:37:31.591Z,101924.44
2023-05-18T15:39:59.548Z,101919.09
2023-05-18T15:42:28.050Z,101925.47
2023-05-18T15:44:55.916Z,101917.78
2023-05-18T15:47:23.677Z,101910.91
2023-05-18T15:49:51.441Z,101904.69
2023-05-18T15:52:20.556Z,101897.31
2023-05-18T15:54:48.372Z,101899.38
2023-05-18T15:57:16.297Z,101889.56
2023-05-18T15:59:44.130Z,101896.88
2023-05-18T16:02:11.910Z,101892.75
2023-05-18T16:04:40.062Z,101884.59
2023-05-18T16:07:07.928Z,101890.47
2023-05-18T16:09:37.120Z,101896.59
2023-05-18T16:12:05.500Z,101899.88
2023-05-18T16:14:33.292Z,101895.75
2023-05-18T16:17:02.247Z,101901.00
2023-05-18T16:19:30.129Z,101893.31
2023-05-18T16:21:57.946Z,101891.81
2023-05-18T16:24:25.695Z,101890.31
2023-05-18T16:26:54.839Z,101902.75
2023-05-18T16:29:22.536Z,101897.13
2023-05-18T16:31:51.887Z,101890.28
2023-05-18T16:34:19.858Z,101889.28
2023-05-18T16:36:47.685Z,101896.41
2023-05-18T16:39:16.340Z,101893.31
2023-05-18T16:41:44.079Z,101883.78
2023-05-18T16:44:13.184Z,101880.19
2023-05-18T16:46:40.950Z,101881.28
2023-05-18T16:49:08.771Z,101874.72
2023-05-18T16:51:36.522Z,101895.78
2023-05-18T16:54:06.099Z,101889.03
2023-05-18T16:56:35.728Z,101885.78
2023-05-18T16:59:03.509Z,101885.72
2023-05-18T17:01:32.667Z,101892.91
2023-05-18T17:04:00.540Z,101890.81
2023-05-18T17:06:28.545Z,101895.75
2023-05-18T17:08:58.666Z,101892.47
2023-05-18T17:11:27.704Z,101882.25
2023-05-18T17:13:55.704Z,101894.78
2023-05-18T17:16:23.564Z,101889.56
2023-05-18T17:18:54.486Z,101888.59
2023-05-18T17:21:23.691Z,101894.91
2023-05-18T17:23:51.439Z,101899.97
2023-05-18T17:26:20.059Z,101892.22
2023-05-18T17:28:47.804Z,101893.72
2023-05-18T17:31:15.726Z,101890.13
2023-05-18T17:33:47.104Z,101900.84
2023-05-18T17:36:18.011Z,101897.19
2023-05-18T17:38:46.821Z,101889.72
2023-05-18T17:41:14.680Z,101894.31
2023-05-18T17:43:42.503Z,101899.69
2023-05-18T17:46:10.243Z,101897.03
2023-05-18T17:48:37.953Z,101900.31
2023-05-18T17:51:05.956Z,101899.94
2023-05-18T17:53:35.097Z,101901.69
2023-05-18T17:56:02.937Z,101898.69
2023-05-18T17:58:30.717Z,101898.59
2023-05-18T18:00:58.628Z,101910.16
2023-05-18T18:03:26.592Z,101909.13
2023-05-18T18:05:54.699Z,101908.44
2023-05-18T18:08:22.478Z,101909.69
2023-05-18T18:10:52.670Z,101915.94
2023-05-18T18:13:20.418Z,101919.69
2023-05-18T18:15:48.181Z,101921.47
2023-05-18T18:18:15.952Z,101914.84
2023-05-18T18:20:44.159Z,101921.22
2023-05-18T18:23:12.247Z,101925.66
2023-05-18T18:25:40.046Z,101927.13
2023-05-18T18:28:14.577Z,101925.75
2023-05-18T18:30:44.188Z,101930.53
2023-05-18T18:33:12.366Z,101930.97
2023-05-18T18:35:40.591Z,101932.25
2023-05-18T18:38:08.969Z,101937.75
2023-05-18T18:40:36.749Z,101939.06
2023-05-18T18:43:04.595Z,101940.13
2023-05-18T18:45:33.870Z,101942.78
2023-05-18T18:48:02.748Z,101942.59
2023-05-18T18:50:30.828Z,101947.56
2023-05-18T18:52:58.826Z,101952.53
2023-05-18T18:55:26.642Z,101939.66
2023-05-18T18:57:55.550Z,101950.47
2023-05-18T19:00:23.786Z,101949.44
2023-05-18T19:02:52.930Z,101954.75
2023-05-18T19:05:23.353Z,101958.75
2023-05-18T19:07:55.028Z,101970.81
2023-05-18T19:10:23.700Z,101971.28
2023-05-18T19:12:51.458Z,101977.94
2023-05-18T19:15:21.258Z,101980.97
2023-05-18T19:17:52.051Z,101984.44
2023-05-18T19:20:21.941Z,101988.78
2023-05-18T19:22:49.866Z,101991.25
2023-05-18T19:25:17.685Z,101992.38
2023-05-18T19:27:45.675Z,101990.34
2023-05-18T19:30:16.541Z,101988.72
2023-05-18T19:32:44.327Z,101988.16
2023-05-18T19:35:12.093Z,101983.75
2023-05-18T19:37:41.223Z,101989.72
2023-05-18T19:40:09.630Z,101989.19
2023-05-18T19:42:37.444Z,101998.78
2023-05-18T19:45:05.996Z,102000.00
2023-05-18T19:47:33.817Z,102003.13
2023-05-18T19:50:01.955Z,102007.06
2023-05-18T19:52:29.720Z,102002.09
2023-05-18T19:54:58.814Z,102003.06
2023-05-18T19:57:26.559Z,101994.56
2023-05-18T19:59:54.429Z,102012.03
2023-05-18T20:02:22.281Z,102010.84
2023-05-18T20:04:50.118Z,102021.03
2023-05-18T20:07:20.374Z,102005.06
2023-05-18T20:09:48.187Z,102020.81
2023-05-18T20:12:17.311Z,102022.94
2023-05-18T20:14:45.829Z,102028.38
2023-05-18T20:17:13.971Z,102035.56
2023-05-18T20:19:49.846Z,102033.78
2023-05-18T20:22:17.938Z,102032.09
2023-05-18T20:24:46.084Z,102031.06
2023-05-18T20:27:15.170Z,102024.22
2023-05-18T20:29:44.334Z,102027.78
2023-05-18T20:32:12.113Z,102033.03
2023-05-18T20:34:40.555Z,102034.59
2023-05-18T20:37:10.967Z,102036.06
2023-05-18T20:39:39.887Z,102042.72
2023-05-18T20:42:12.778Z,102051.13
2023-05-18T20:44:40.639Z,102050.97
2023-05-18T20:47:11.204Z,102050.16
2023-05-18T20:49:39.147Z,102041.34
2023-05-18T20:52:07.224Z,102045.03
2023-05-18T20:54:34.945Z,102048.47
2023-05-18T20:57:03.070Z,102058.06
2023-05-18T20:59:31.275Z,102063.19
2023-05-18T21:01:59.167Z,102058.72
2023-05-18T21:04:28.407Z,102063.19
2023-05-18T21:06:56.229Z,102063.19
2023-05-18T21:09:23.976Z,102058.50
2023-05-18T21:11:51.730Z,102063.53
2023-05-18T21:14:19.559Z,102061.34
2023-05-18T21:16:47.300Z,102071.78
2023-05-18T21:19:15.114Z,102067.53
2023-05-18T21:21:44.269Z,102071.97
2023-05-18T21:24:12.003Z,102068.66
2023-05-18T21:26:40.960Z,102074.16
2023-05-18T21:29:09.852Z,102071.72
2023-05-18T21:31:37.728Z,102073.44
2023-05-18T21:34:05.613Z,102071.97
2023-05-18T21:36:34.632Z,102077.22
2023-05-18T21:39:05.496Z,102081.81
2023-05-18T21:41:35.256Z,102085.94
2023-05-18T21:44:03.271Z,102082.88
2023-05-18T21:46:32.444Z,102074.84
2023-05-18T21:49:00.371Z,102074.00
2023-05-18T21:51:31.222Z,102071.44
2023-05-18T21:53:59.505Z,102071.44
2023-05-18T21:56:29.829Z,102080.66
2023-05-18T21:58:58.027Z,102077.25
2023-05-18T22:01:25.888Z,102079.88
2023-05-18T22:03:54.090Z,102073.13
2023-05-18T22:06:21.929Z,102082.28
2023-05-18T22:08:49.765Z,102078.56
2023-05-18T22:11:17.535Z,102079.97
2023-05-18T22:13:46.861Z,102091.56
2023-05-18T22:16:14.648Z,102087.06
2023-05-18T22:18:42.395Z,102093.81
2023-05-18T22:21:10.186Z,102093.13
2023-05-18T22:23:39.093Z,102098.59
2023-05-18T22:26:07.097Z,102095.72
2023-05-18T22:28:35.011Z,102098.28
2023-05-18T22:31:04.140Z,102093.63
2023-05-18T22:33:31.913Z,102095.38
2023-05-18T22:35:59.715Z,102093.19
2023-05-18T22:38:27.789Z,102098.78
2023-05-18T22:40:55.569Z,102100.34
2023-05-18T22:43:23.360Z,102095.91
2023-05-18T22:45:51.229Z,102096.81
2023-05-18T22:48:20.493Z,102096.53
2023-05-18T22:50:48.280Z,102090.34
2023-05-18T22:53:16.000Z,102091.16
2023-05-18T22:55:43.914Z,102090.50
2023-05-18T22:58:11.700Z,102088.84
2023-05-18T23:00:39.413Z,102091.34
2023-05-18T23:03:07.196Z,102088.34
2023-05-18T23:05:40.971Z,102083.28
2023-05-18T23:08:09.633Z,102090.50
2023-05-18T23:10:37.640Z,102096.94
2023-05-18T23:13:05.408Z,102096.88
2023-05-18T23:15:33.197Z,102093.00
2023-05-18T23:18:01.048Z,102090.78
2023-05-18T23:20:28.854Z,102090.59
2023-05-18T23:22:58.038Z,102088.63
2023-05-18T23:25:25.996Z,102088.75
2023-05-18T23:27:53.784Z,102094.84
2023-05-18T23:30:21.596Z,102095.88
2023-05-18T23:32:50.176Z,102097.56
2023-05-18T23:35:19.240Z,102104.09
2023-05-18T23:37:49.893Z,102101.47
2023-05-18T23:40:20.141Z,102100.63
2023-05-18T23:42:48.385Z,102095.25
2023-05-18T23:45:17.082Z,102095.28
2023-05-18T23:47:46.274Z,102096.34
2023-05-18T23:50:15.801Z,102093.03
2023-05-18T23:52:47.087Z,102094.41
2023-05-18T23:55:15.539Z,102091.34
2023-05-18T23:57:45.424Z,102088.25
